createdAt,value
2017-10-13T00:02:08.806Z,15.03
2017-10-13T00:04:37.421Z,7.70
2017-10-13T00:07:07.623Z,9.53
2017-10-13T00:09:37.423Z,4.03
2017-10-13T00:12:06.035Z,10.33
2017-10-13T00:14:35.982Z,4.83
2017-10-13T00:17:05.354Z,13.10
2017-10-13T00:19:39.261Z,4.40
2017-10-13T00:22:07.890Z,7.83
2017-10-13T00:24:36.551Z,16.57
2017-10-13T00:27:05.168Z,9.13
2017-10-13T00:29:33.777Z,15.13
2017-10-13T00:32:02.310Z,7.23
2017-10-13T00:34:32.114Z,6.70
2017-10-13T00:37:00.822Z,9.47
2017-10-13T00:39:29.482Z,5.17
2017-10-13T00:41:58.122Z,6.33
2017-10-13T00:44:26.734Z,12.53
2017-10-13T00:46:55.266Z,7.23
2017-10-13T00:49:23.935Z,6.93
2017-10-13T00:51:52.598Z,9.03
2017-10-13T00:54:21.292Z,6.77
2017-10-13T00:56:50.021Z,10.00
2017-10-13T00:59:18.687Z,4.47
2017-10-13T01:01:47.436Z,5.07
2017-10-13T01:04:16.120Z,5.40
2017-10-13T01:06:44.787Z,4.33
2017-10-13T01:09:13.484Z,10.83
2017-10-13T01:11:42.098Z,5.90
2017-10-13T01:14:10.728Z,5.53
2017-10-13T01:16:39.056Z,5.13
2017-10-13T01:19:07.698Z,11.80
2017-10-13T01:21:36.068Z,7.23
2017-10-13T01:24:04.385Z,4.63
2017-10-13T01:26:33.057Z,4.80
2017-10-13T01:29:01.385Z,7.73
2017-10-13T01:31:30.040Z,4.30
2017-10-13T01:33:58.724Z,21.17
2017-10-13T01:36:27.025Z,5.33
2017-10-13T01:38:55.371Z,10.87
2017-10-13T01:41:24.027Z,12.43
2017-10-13T01:43:52.738Z,9.70
2017-10-13T01:46:21.365Z,10.50
2017-10-13T01:48:50.082Z,10.23
2017-10-13T01:51:18.715Z,11.40
2017-10-13T01:53:47.336Z,9.83
2017-10-13T01:56:16.018Z,15.10
2017-10-13T01:58:44.672Z,10.93
2017-10-13T02:01:13.365Z,13.57
2017-10-13T02:03:42.011Z,6.50
2017-10-13T02:06:10.677Z,8.60
2017-10-13T02:08:39.290Z,5.83
2017-10-13T02:11:07.947Z,8.07
2017-10-13T02:13:36.584Z,10.40
2017-10-13T02:16:05.269Z,3.73
2017-10-13T02:18:33.873Z,9.80
2017-10-13T02:21:02.542Z,7.33
2017-10-13T02:23:31.165Z,9.40
2017-10-13T02:25:59.811Z,18.97
2017-10-13T02:28:28.460Z,3.30
2017-10-13T02:30:57.122Z,11.20
2017-10-13T02:33:25.735Z,11.57
2017-10-13T02:35:54.402Z,8.23
2017-10-13T02:38:23.033Z,9.47
2017-10-13T02:40:51.362Z,3.90
2017-10-13T02:43:20.034Z,7.43
2017-10-13T02:45:48.695Z,5.30
2017-10-13T02:48:17.408Z,15.90
2017-10-13T02:50:45.714Z,8.17
2017-10-13T02:53:14.202Z,7.63
2017-10-13T02:55:42.871Z,9.20
2017-10-13T02:58:11.483Z,7.93
2017-10-13T03:00:39.922Z,3.33
2017-10-13T03:03:08.531Z,7.73
2017-10-13T03:05:37.195Z,5.10
2017-10-13T03:08:05.798Z,7.00
2017-10-13T03:10:34.467Z,11.03
2017-10-13T03:13:03.078Z,9.43
2017-10-13T03:15:31.723Z,4.83
2017-10-13T03:18:00.351Z,11.37
2017-10-13T03:20:29.007Z,13.10
2017-10-13T03:22:57.666Z,8.03
2017-10-13T03:25:26.371Z,6.40
2017-10-13T03:27:54.991Z,5.30
2017-10-13T03:30:23.666Z,10.60
2017-10-13T03:32:54.073Z,8.77
2017-10-13T03:35:22.683Z,3.93
2017-10-13T03:37:51.354Z,7.70
2017-10-13T03:40:19.993Z,14.57
2017-10-13T03:42:48.689Z,8.87
2017-10-13T03:45:17.447Z,5.13
2017-10-13T03:47:46.065Z,9.93
2017-10-13T03:50:14.726Z,8.40
2017-10-13T03:52:43.372Z,13.33
2017-10-13T03:55:16.098Z,7.63
2017-10-13T03:57:47.215Z,7.87
2017-10-13T04:00:18.581Z,3.10
2017-10-13T04:02:49.801Z,6.27
2017-10-13T04:05:20.245Z,6.87
2017-10-13T04:10:55.126Z,15.73
2017-10-13T04:13:38.581Z,5.90
2017-10-13T04:16:24.088Z,5.37
2017-10-13T04:19:10.716Z,6.40
2017-10-13T04:21:53.845Z,11.63
2017-10-13T04:24:37.388Z,6.30
2017-10-13T04:27:24.753Z,6.90
2017-10-13T04:30:06.728Z,9.83
2017-10-13T04:32:51.777Z,11.23
2017-10-13T04:35:36.756Z,14.27
2017-10-13T04:38:21.876Z,6.10
2017-10-13T04:41:06.182Z,9.43
2017-10-13T04:43:52.175Z,13.73
2017-10-13T04:46:36.259Z,19.87
2017-10-13T04:49:21.634Z,10.77
2017-10-13T04:52:05.717Z,6.80
2017-10-13T04:54:52.144Z,9.97
2017-10-13T04:57:38.114Z,12.83
2017-10-13T05:00:24.603Z,5.47
2017-10-13T05:03:03.871Z,6.60
2017-10-13T05:05:32.779Z,8.73
2017-10-13T05:08:01.386Z,4.07
2017-10-13T05:10:30.039Z,10.50
2017-10-13T05:12:58.646Z,10.87
2017-10-13T05:15:27.378Z,9.30
2017-10-13T05:17:55.990Z,9.60
2017-10-13T05:20:24.641Z,10.70
2017-10-13T05:22:53.330Z,16.83
2017-10-13T05:25:21.975Z,17.07
2017-10-13T05:27:50.586Z,7.43
2017-10-13T05:30:19.255Z,7.40
2017-10-13T05:32:47.867Z,8.97
2017-10-13T05:35:16.544Z,10.13
2017-10-13T05:37:45.146Z,7.23
2017-10-13T05:40:13.811Z,14.37
2017-10-13T05:42:42.430Z,9.53
2017-10-13T05:45:11.120Z,12.90
2017-10-13T05:47:39.737Z,9.60
2017-10-13T05:50:08.391Z,12.07
2017-10-13T05:52:36.992Z,6.30
2017-10-13T05:55:05.659Z,10.17
2017-10-13T05:57:35.545Z,8.40
2017-10-13T06:00:03.947Z,4.57
2017-10-13T06:02:32.461Z,8.87
2017-10-13T06:05:01.119Z,5.23
2017-10-13T06:07:32.044Z,7.17
2017-10-13T06:10:00.695Z,8.20
2017-10-13T06:12:29.319Z,5.50
2017-10-13T06:14:57.826Z,8.63
2017-10-13T06:17:26.327Z,3.17
2017-10-13T06:19:54.790Z,5.27
2017-10-13T06:22:23.434Z,7.47
2017-10-13T06:24:51.938Z,11.67
2017-10-13T06:27:20.418Z,7.13
2017-10-13T06:29:49.059Z,14.07
2017-10-13T06:32:17.713Z,7.10
2017-10-13T06:34:46.329Z,11.67
2017-10-13T06:37:14.836Z,5.50
2017-10-13T06:39:43.536Z,7.93
2017-10-13T06:42:12.164Z,6.83
2017-10-13T06:44:40.820Z,14.73
2017-10-13T06:47:09.466Z,6.13
2017-10-13T06:49:38.119Z,10.63
2017-10-13T06:52:06.737Z,9.90
2017-10-13T06:54:35.414Z,15.63
2017-10-13T06:57:04.045Z,11.43
2017-10-13T06:59:32.555Z,9.73
2017-10-13T07:02:00.853Z,15.27
2017-10-13T07:04:29.538Z,6.33
2017-10-13T07:06:58.186Z,14.80
2017-10-13T07:09:26.825Z,16.60
2017-10-13T07:11:55.485Z,9.60
2017-10-13T07:14:24.147Z,13.53
2017-10-13T07:16:52.793Z,9.20
2017-10-13T07:19:21.474Z,21.63
2017-10-13T07:21:50.091Z,11.83
2017-10-13T07:24:18.783Z,9.70
2017-10-13T07:26:47.279Z,10.70
2017-10-13T07:29:15.979Z,11.07
2017-10-13T07:31:44.607Z,13.03
2017-10-13T07:34:13.263Z,11.47
2017-10-13T07:36:41.874Z,12.87
2017-10-13T07:39:10.529Z,19.43
2017-10-13T07:41:39.154Z,23.80
2017-10-13T07:44:07.787Z,14.33
2017-10-13T07:46:36.470Z,16.33
2017-10-13T07:49:05.085Z,15.30
2017-10-13T07:51:33.736Z,13.00
2017-10-13T07:54:02.365Z,13.90
2017-10-13T07:56:30.992Z,22.67
2017-10-13T07:58:59.752Z,14.33
2017-10-13T08:01:28.375Z,12.80
2017-10-13T08:03:56.983Z,12.53
2017-10-13T08:06:25.653Z,10.37
2017-10-13T08:08:54.317Z,19.33
2017-10-13T08:11:22.925Z,26.60
2017-10-13T08:13:51.586Z,14.10
2017-10-13T08:16:20.198Z,8.60
2017-10-13T08:18:48.861Z,10.30
2017-10-13T08:21:17.474Z,13.17
2017-10-13T08:23:46.143Z,8.60
2017-10-13T08:26:14.555Z,15.40
2017-10-13T08:28:43.232Z,16.20
2017-10-13T08:31:11.871Z,15.70
2017-10-13T08:33:40.533Z,12.07
2017-10-13T08:36:09.268Z,9.50
2017-10-13T08:38:37.887Z,13.43
2017-10-13T08:41:06.509Z,11.60
2017-10-13T08:43:35.181Z,14.10
2017-10-13T08:46:03.797Z,15.27
2017-10-13T08:48:32.467Z,11.63
2017-10-13T08:51:01.143Z,12.63
2017-10-13T08:53:29.799Z,16.07
2017-10-13T08:55:58.412Z,13.10
2017-10-13T08:58:27.030Z,11.97
2017-10-13T09:00:55.724Z,17.83
2017-10-13T09:03:24.363Z,14.13
2017-10-13T09:05:52.871Z,15.60
2017-10-13T09:08:21.344Z,10.53
2017-10-13T09:10:49.813Z,11.27
2017-10-13T09:13:18.325Z,15.37
2017-10-13T09:15:46.974Z,8.60
2017-10-13T09:18:15.439Z,14.63
2017-10-13T09:20:44.063Z,12.60
2017-10-13T09:23:15.108Z,16.50
2017-10-13T09:25:43.740Z,15.70
2017-10-13T09:28:12.420Z,18.00
2017-10-13T09:30:40.775Z,12.70
2017-10-13T09:33:09.465Z,9.87
2017-10-13T09:35:37.793Z,22.07
2017-10-13T09:38:06.458Z,10.90
2017-10-13T09:40:35.107Z,18.80
2017-10-13T09:43:03.762Z,15.23
2017-10-13T09:45:32.294Z,16.73
2017-10-13T09:48:00.799Z,12.73
2017-10-13T09:50:29.471Z,28.80
2017-10-13T09:52:58.102Z,14.93
2017-10-13T09:55:26.772Z,31.80
2017-10-13T09:57:55.419Z,30.77
2017-10-13T10:00:24.091Z,15.13
2017-10-13T10:02:52.750Z,19.33
2017-10-13T10:05:21.386Z,23.40
2017-10-13T10:07:49.930Z,20.00
2017-10-13T10:10:18.563Z,10.50
2017-10-13T10:12:47.223Z,23.43
2017-10-13T10:15:15.848Z,16.37
2017-10-13T10:17:44.529Z,20.27
2017-10-13T10:20:13.155Z,16.93
2017-10-13T10:22:41.830Z,22.47
2017-10-13T10:25:10.467Z,23.60
2017-10-13T10:27:39.087Z,12.73
2017-10-13T10:30:07.742Z,21.73
2017-10-13T10:32:36.430Z,21.37
2017-10-13T10:35:05.107Z,20.73
2017-10-13T10:37:35.793Z,23.13
2017-10-13T10:40:04.427Z,26.17
2017-10-13T10:42:33.086Z,24.23
2017-10-13T10:45:01.738Z,30.27
2017-10-13T10:47:34.701Z,18.67
2017-10-13T10:50:03.204Z,18.57
2017-10-13T10:52:31.885Z,22.47
2017-10-13T10:55:00.526Z,15.30
2017-10-13T10:57:34.038Z,20.67
2017-10-13T11:00:02.723Z,13.20
2017-10-13T11:02:31.382Z,22.73
2017-10-13T11:04:59.991Z,15.13
2017-10-13T11:07:28.476Z,20.00
2017-10-13T11:09:57.137Z,22.67
2017-10-13T11:12:25.757Z,17.33
2017-10-13T11:14:54.427Z,32.13
2017-10-13T11:17:23.065Z,23.23
2017-10-13T11:19:51.742Z,23.23
2017-10-13T11:22:20.366Z,14.43
2017-10-13T11:24:49.044Z,20.17
2017-10-13T11:27:17.680Z,19.50
2017-10-13T11:29:46.326Z,21.27
2017-10-13T11:32:14.995Z,13.47
2017-10-13T11:34:43.606Z,22.40
2017-10-13T11:37:12.223Z,29.70
2017-10-13T11:39:40.951Z,19.93
2017-10-13T11:42:09.639Z,20.20
2017-10-13T11:44:38.295Z,23.53
2017-10-13T11:47:06.976Z,15.50
2017-10-13T11:49:35.648Z,19.97
2017-10-13T11:52:04.277Z,26.90
2017-10-13T11:54:32.946Z,18.93
2017-10-13T11:57:01.561Z,25.40
2017-10-13T11:59:30.227Z,17.77
2017-10-13T12:01:58.707Z,15.70
2017-10-13T12:04:27.375Z,11.47
2017-10-13T12:06:56.023Z,18.80
2017-10-13T12:09:24.676Z,13.37
2017-10-13T12:11:53.283Z,25.10
2017-10-13T12:14:21.893Z,20.63
2017-10-13T12:16:50.567Z,10.63
2017-10-13T12:19:19.194Z,15.77
2017-10-13T12:21:47.807Z,19.07
2017-10-13T12:24:16.468Z,15.17
2017-10-13T12:26:45.073Z,18.37
2017-10-13T12:29:13.722Z,23.30
2017-10-13T12:31:42.326Z,19.87
2017-10-13T12:34:10.980Z,23.13
2017-10-13T12:36:39.594Z,21.33
2017-10-13T12:39:08.246Z,10.43
2017-10-13T12:41:36.858Z,21.33
2017-10-13T12:44:05.491Z,21.03
2017-10-13T12:46:34.170Z,25.50
2017-10-13T12:49:02.815Z,21.57
2017-10-13T12:51:31.491Z,17.27
2017-10-13T12:54:00.130Z,19.83
2017-10-13T12:56:28.806Z,16.63
2017-10-13T12:58:57.415Z,14.00
2017-10-13T13:01:26.082Z,18.67
2017-10-13T13:03:54.712Z,22.10
2017-10-13T13:06:23.371Z,20.00
2017-10-13T13:08:51.986Z,29.40
2017-10-13T13:11:20.639Z,18.20
2017-10-13T13:13:49.163Z,18.20
2017-10-13T13:16:17.691Z,24.00
2017-10-13T13:18:46.313Z,14.83
2017-10-13T13:21:14.995Z,25.60
2017-10-13T13:23:43.610Z,20.90
2017-10-13T13:26:12.564Z,24.10
2017-10-13T13:28:44.009Z,24.90
2017-10-13T13:31:23.858Z,16.30
2017-10-13T13:33:59.509Z,17.57
2017-10-13T13:36:40.813Z,20.47
2017-10-13T13:39:22.361Z,19.57
2017-10-13T13:41:51.088Z,16.60
2017-10-13T13:44:19.623Z,12.93
2017-10-13T13:46:47.966Z,15.17
2017-10-13T13:49:16.467Z,15.80
2017-10-13T13:51:45.074Z,15.97
2017-10-13T13:54:13.747Z,24.63
2017-10-13T13:56:42.408Z,17.77
2017-10-13T13:59:11.063Z,21.13
2017-10-13T14:01:39.732Z,15.93
2017-10-13T14:04:08.390Z,12.43
2017-10-13T14:06:37.026Z,24.17
2017-10-13T14:09:05.116Z,14.73
2017-10-13T14:11:33.762Z,19.80
2017-10-13T14:14:02.239Z,22.80
2017-10-13T14:16:30.916Z,18.83
2017-10-13T14:18:59.565Z,17.57
2017-10-13T14:21:28.234Z,21.50
2017-10-13T14:23:56.861Z,17.23
2017-10-13T14:26:25.529Z,20.87
2017-10-13T14:28:54.170Z,29.63
2017-10-13T14:31:22.794Z,18.63
2017-10-13T14:33:51.322Z,17.80
2017-10-13T14:36:19.790Z,17.30
2017-10-13T14:38:48.322Z,22.43
2017-10-13T14:41:16.798Z,20.73
2017-10-13T14:43:45.261Z,19.33
2017-10-13T14:46:13.931Z,30.67
2017-10-13T14:48:42.542Z,13.60
2017-10-13T14:51:11.053Z,21.47
2017-10-13T14:53:39.516Z,18.47
2017-10-13T14:56:08.222Z,27.43
2017-10-13T14:58:36.691Z,35.40
2017-10-13T15:01:05.167Z,22.03
2017-10-13T15:03:33.679Z,16.13
2017-10-13T15:06:02.358Z,22.23
2017-10-13T15:08:31.020Z,25.17
2017-10-13T15:10:59.627Z,27.53
2017-10-13T15:13:28.270Z,19.60
2017-10-13T15:15:56.899Z,28.40
2017-10-13T15:18:25.587Z,20.00
2017-10-13T15:20:54.206Z,16.33
2017-10-13T15:23:22.838Z,14.07
2017-10-13T15:25:55.243Z,13.60
2017-10-13T15:28:29.318Z,21.27
2017-10-13T15:31:01.834Z,37.60
2017-10-13T15:33:35.872Z,32.07
2017-10-13T15:36:09.817Z,26.60
2017-10-13T15:38:43.737Z,23.47
2017-10-13T15:41:18.020Z,19.60
2017-10-13T15:43:51.983Z,29.07
2017-10-13T15:46:26.069Z,27.87
2017-10-13T15:49:00.020Z,21.17
2017-10-13T15:51:34.118Z,21.87
2017-10-13T15:54:02.804Z,21.53
2017-10-13T15:56:31.443Z,26.40
2017-10-13T15:59:00.055Z,18.77
2017-10-13T16:01:28.735Z,19.63
2017-10-13T16:03:57.347Z,19.50
2017-10-13T16:06:25.974Z,18.33
2017-10-13T16:08:54.641Z,16.93
2017-10-13T16:11:23.249Z,20.40
2017-10-13T16:13:51.874Z,17.13
2017-10-13T16:16:20.390Z,24.97
2017-10-13T16:18:49.020Z,26.77
2017-10-13T16:21:17.632Z,29.17
2017-10-13T16:23:46.293Z,22.33
2017-10-13T16:26:14.910Z,22.67
2017-10-13T16:28:43.520Z,23.17
2017-10-13T16:31:12.191Z,18.30
2017-10-13T16:33:40.838Z,16.07
2017-10-13T16:36:09.468Z,20.77
2017-10-13T16:38:38.126Z,19.43
2017-10-13T16:41:06.743Z,17.57
2017-10-13T16:43:35.374Z,31.80
2017-10-13T16:46:03.885Z,14.03
2017-10-13T16:48:32.537Z,18.23
2017-10-13T16:51:01.010Z,11.73
2017-10-13T16:53:29.543Z,19.20
2017-10-13T16:55:58.172Z,14.07
2017-10-13T16:58:26.838Z,20.63
2017-10-13T17:00:55.513Z,14.77
2017-10-13T17:03:24.121Z,22.83
2017-10-13T17:05:52.744Z,15.80
2017-10-13T17:08:21.411Z,16.43
2017-10-13T17:10:49.875Z,24.27
2017-10-13T17:13:18.401Z,13.87
2017-10-13T17:15:46.905Z,15.63
2017-10-13T17:18:15.436Z,18.37
2017-10-13T17:20:44.061Z,14.43
2017-10-13T17:23:12.739Z,14.37
2017-10-13T17:25:41.350Z,18.70
2017-10-13T17:28:09.991Z,18.20
2017-10-13T17:30:38.680Z,22.37
2017-10-13T17:33:07.323Z,12.60
2017-10-13T17:35:35.940Z,13.43
2017-10-13T17:38:04.650Z,13.33
2017-10-13T17:40:33.166Z,15.73
2017-10-13T17:43:01.480Z,15.60
2017-10-13T17:45:30.160Z,20.93
2017-10-13T17:47:58.795Z,20.83
2017-10-13T17:50:27.416Z,12.97
2017-10-13T17:52:56.069Z,18.93
2017-10-13T17:55:24.671Z,12.20
2017-10-13T17:57:53.333Z,18.23
2017-10-13T18:00:22.005Z,15.60
2017-10-13T18:02:50.695Z,15.70
2017-10-13T18:05:19.309Z,19.60
2017-10-13T18:07:47.983Z,19.73
2017-10-13T18:10:16.442Z,12.83
2017-10-13T18:12:45.090Z,12.30
2017-10-13T18:15:13.762Z,26.83
2017-10-13T18:17:42.409Z,8.27
2017-10-13T18:20:11.044Z,19.90
2017-10-13T18:22:39.709Z,22.00
2017-10-13T18:25:08.374Z,11.90
2017-10-13T18:27:38.179Z,16.00
2017-10-13T18:30:06.794Z,15.27
2017-10-13T18:32:35.462Z,17.10
2017-10-13T18:35:04.084Z,20.07
2017-10-13T18:37:32.696Z,15.93
2017-10-13T18:40:01.363Z,18.83
2017-10-13T18:42:30.002Z,18.63
2017-10-13T18:44:58.652Z,9.97
2017-10-13T18:47:27.269Z,15.67
2017-10-13T18:49:55.919Z,13.47
2017-10-13T18:52:24.530Z,27.17
2017-10-13T18:54:53.043Z,13.53
2017-10-13T18:57:21.530Z,11.43
2017-10-13T18:59:50.222Z,13.23
2017-10-13T19:02:18.829Z,13.70
2017-10-13T19:04:47.504Z,13.67
2017-10-13T19:07:16.124Z,15.57
2017-10-13T19:09:44.729Z,12.20
2017-10-13T19:12:13.400Z,16.80
2017-10-13T19:14:42.064Z,19.00
2017-10-13T19:17:10.688Z,15.90
2017-10-13T19:19:39.338Z,21.27
2017-10-13T19:22:07.989Z,17.30
2017-10-13T19:24:36.609Z,17.20
2017-10-13T19:27:05.266Z,20.33
2017-10-13T19:29:33.870Z,21.00
2017-10-13T19:32:02.489Z,17.90
2017-10-13T19:34:31.149Z,10.07
2017-10-13T19:36:59.775Z,15.53
2017-10-13T19:39:28.540Z,13.83
2017-10-13T19:41:57.215Z,20.27
2017-10-13T19:44:25.844Z,10.80
2017-10-13T19:46:54.515Z,11.50
2017-10-13T19:49:23.141Z,16.30
2017-10-13T19:51:51.805Z,11.70
2017-10-13T19:54:20.424Z,19.07
2017-10-13T19:56:49.107Z,8.80
2017-10-13T19:59:17.732Z,14.23
2017-10-13T20:01:46.438Z,13.93
2017-10-13T20:04:15.063Z,12.67
2017-10-13T20:06:43.687Z,13.23
2017-10-13T20:09:12.343Z,17.57
2017-10-13T20:11:40.951Z,16.83
2017-10-13T20:14:09.488Z,13.13
2017-10-13T20:16:37.961Z,16.83
2017-10-13T20:19:06.475Z,12.60
2017-10-13T20:21:35.114Z,12.80
2017-10-13T20:24:03.806Z,16.63
2017-10-13T20:26:32.473Z,17.70
2017-10-13T20:29:01.112Z,15.60
2017-10-13T20:31:29.801Z,12.30
2017-10-13T20:33:58.409Z,15.37
2017-10-13T20:36:27.082Z,17.80
2017-10-13T20:38:55.711Z,19.67
2017-10-13T20:41:24.329Z,15.97
2017-10-13T20:43:52.987Z,21.80
2017-10-13T20:46:21.600Z,27.63
2017-10-13T20:48:50.116Z,20.10
2017-10-13T20:51:18.603Z,14.23
2017-10-13T20:53:47.110Z,18.40
2017-10-13T20:56:15.591Z,21.83
2017-10-13T20:58:44.218Z,11.73
2017-10-13T21:01:12.871Z,14.43
2017-10-13T21:03:41.526Z,9.30
2017-10-13T21:06:10.150Z,19.30
2017-10-13T21:08:38.789Z,20.67
2017-10-13T21:11:07.464Z,22.33
2017-10-13T21:13:36.086Z,20.80
2017-10-13T21:16:04.758Z,15.40
2017-10-13T21:18:33.389Z,15.63
2017-10-13T21:21:02.036Z,17.30
2017-10-13T21:23:30.663Z,24.53
2017-10-13T21:25:59.340Z,24.10
2017-10-13T21:28:27.993Z,19.40
2017-10-13T21:30:56.612Z,23.20
2017-10-13T21:33:25.281Z,26.93
2017-10-13T21:35:53.907Z,14.17
2017-10-13T21:38:22.561Z,16.10
2017-10-13T21:40:51.201Z,22.00
2017-10-13T21:43:19.672Z,17.20
2017-10-13T21:45:48.210Z,21.63
2017-10-13T21:48:16.892Z,20.80
2017-10-13T21:50:45.608Z,24.23
2017-10-13T21:53:14.219Z,23.33
2017-10-13T21:55:42.871Z,24.67
2017-10-13T21:58:11.485Z,21.80
2017-10-13T22:00:40.176Z,20.83
2017-10-13T22:03:08.810Z,19.80
2017-10-13T22:05:37.475Z,30.23
2017-10-13T22:08:06.093Z,21.90
2017-10-13T22:10:34.783Z,29.77
2017-10-13T22:13:03.422Z,22.80
2017-10-13T22:15:31.907Z,22.43
2017-10-13T22:18:00.567Z,28.23
2017-10-13T22:20:29.246Z,24.50
2017-10-13T22:22:57.921Z,29.47
2017-10-13T22:25:26.580Z,20.27
2017-10-13T22:27:55.338Z,18.73
2017-10-13T22:30:23.958Z,19.30
2017-10-13T22:32:52.583Z,20.50
2017-10-13T22:35:21.266Z,31.83
2017-10-13T22:37:49.900Z,34.00
2017-10-13T22:40:18.609Z,18.30
2017-10-13T22:42:47.359Z,27.27
2017-10-13T22:45:16.018Z,21.80
2017-10-13T22:47:44.631Z,18.27
2017-10-13T22:50:13.106Z,21.87
2017-10-13T22:52:41.623Z,24.30
2017-10-13T22:55:10.086Z,23.43
2017-10-13T22:57:39.625Z,17.50
2017-10-13T23:00:08.135Z,21.73
2017-10-13T23:02:36.759Z,17.03
2017-10-13T23:05:05.425Z,20.00
2017-10-13T23:07:37.570Z,18.27
2017-10-13T23:10:06.251Z,23.53
2017-10-13T23:12:34.882Z,21.43
2017-10-13T23:15:03.518Z,22.60
2017-10-13T23:17:37.231Z,25.20
2017-10-13T23:20:05.859Z,17.00
2017-10-13T23:22:34.486Z,25.03
2017-10-13T23:25:03.157Z,24.30
2017-10-13T23:27:36.963Z,18.73
2017-10-13T23:30:05.639Z,22.20
2017-10-13T23:32:34.270Z,33.17
2017-10-13T23:35:02.798Z,19.47
2017-10-13T23:37:31.405Z,20.33
2017-10-13T23:40:00.041Z,18.90
2017-10-13T23:42:28.711Z,19.43
2017-10-13T23:44:57.323Z,17.50
2017-10-13T23:47:26.009Z,20.07
2017-10-13T23:49:54.626Z,19.33
2017-10-13T23:52:23.249Z,18.30
2017-10-13T23:54:51.926Z,18.93
2017-10-13T23:57:20.587Z,18.47
2017-10-13T23:59:49.109Z,18.90
